createdAt,value
2017-03-17T00:00:52.777Z,0
2017-03-17T00:01:52.803Z,0
2017-03-17T00:02:52.817Z,0
2017-03-17T00:03:52.873Z,4
2017-03-17T00:04:53.030Z,4
2017-03-17T00:05:53.061Z,4
2017-03-17T00:06:52.867Z,4
2017-03-17T00:07:52.895Z,0
2017-03-17T00:08:52.915Z,0
2017-03-17T00:09:52.909Z,0
2017-03-17T00:10:53.429Z,0
2017-03-17T00:11:53.998Z,0
2017-03-17T00:12:54.178Z,0
2017-03-17T00:13:53.992Z,0
2017-03-17T00:14:54.565Z,0
2017-03-17T00:15:54.576Z,0
2017-03-17T00:16:54.581Z,0
2017-03-17T00:17:54.609Z,0
2017-03-17T00:18:54.651Z,0
2017-03-17T00:19:54.697Z,0
2017-03-17T00:20:54.880Z,0
2017-03-17T00:21:54.699Z,0
2017-03-17T00:22:55.298Z,0
2017-03-17T00:23:55.273Z,0
2017-03-17T00:24:55.261Z,0
2017-03-17T00:25:55.811Z,0
2017-03-17T00:26:55.826Z,0
2017-03-17T00:27:56.592Z,0
2017-03-17T00:28:56.580Z,0
2017-03-17T00:29:57.124Z,0
2017-03-17T00:30:57.129Z,0
2017-03-17T00:31:57.710Z,0
2017-03-17T00:32:57.696Z,0
2017-03-17T00:33:57.904Z,0
2017-03-17T00:34:57.732Z,0
2017-03-17T00:35:58.280Z,0
2017-03-17T00:36:58.345Z,0
2017-03-17T00:37:58.296Z,0
2017-03-17T00:38:58.341Z,0
2017-03-17T00:39:58.928Z,0
2017-03-17T00:40:58.882Z,0
2017-03-17T00:41:59.417Z,0
2017-03-17T00:42:59.454Z,0
2017-03-17T00:43:59.478Z,0
2017-03-17T00:44:59.507Z,0
2017-03-17T00:45:59.527Z,0
2017-03-17T00:46:59.548Z,0
2017-03-17T00:47:59.559Z,0
2017-03-17T00:48:59.579Z,0
2017-03-17T00:50:00.127Z,0
2017-03-17T00:51:00.135Z,0
2017-03-17T00:52:00.212Z,0
2017-03-17T00:53:00.162Z,0
2017-03-17T00:54:00.259Z,0
2017-03-17T00:55:00.248Z,0
2017-03-17T00:56:00.452Z,0
2017-03-17T00:57:00.266Z,0
2017-03-17T00:58:00.786Z,0
2017-03-17T00:59:00.809Z,0
2017-03-17T01:00:00.819Z,0
2017-03-17T01:01:01.320Z,0
2017-03-17T01:02:01.834Z,0
2017-03-17T01:03:02.397Z,0
2017-03-17T01:04:02.674Z,0
2017-03-17T01:05:02.452Z,0
2017-03-17T01:06:02.499Z,0
2017-03-17T01:07:02.502Z,0
2017-03-17T01:08:02.572Z,0
2017-03-17T01:09:02.598Z,0
2017-03-17T01:10:02.586Z,0
2017-03-17T01:11:02.827Z,0
2017-03-17T01:12:02.648Z,0
2017-03-17T01:13:02.656Z,0
2017-03-17T01:14:02.722Z,0
2017-03-17T01:15:02.705Z,0
2017-03-17T01:16:03.505Z,0
2017-03-17T01:17:02.773Z,0
2017-03-17T01:18:02.777Z,0
2017-03-17T01:19:02.810Z,0
2017-03-17T01:20:03.042Z,0
2017-03-17T01:21:02.889Z,0
2017-03-17T01:22:02.889Z,0
2017-03-17T01:23:03.501Z,0
2017-03-17T01:24:03.511Z,0
2017-03-17T01:25:03.560Z,0
2017-03-17T01:26:03.527Z,0
2017-03-17T01:27:03.556Z,0
2017-03-17T01:28:03.551Z,0
2017-03-17T01:29:03.835Z,0
2017-03-17T01:30:03.629Z,0
2017-03-17T01:31:03.616Z,0
2017-03-17T01:32:03.704Z,0
2017-03-17T01:33:03.683Z,0
2017-03-17T01:34:03.705Z,0
2017-03-17T01:35:03.787Z,0
2017-03-17T01:36:03.757Z,0
2017-03-17T01:37:04.382Z,0
2017-03-17T01:38:04.316Z,0
2017-03-17T01:39:04.873Z,0
2017-03-17T01:40:04.931Z,0
2017-03-17T01:41:04.920Z,0
2017-03-17T01:42:04.926Z,0
2017-03-17T01:43:04.955Z,0
2017-03-17T01:44:05.503Z,0
2017-03-17T01:45:05.531Z,0
2017-03-17T01:46:06.047Z,0
2017-03-17T01:47:06.642Z,0
2017-03-17T01:48:06.606Z,0
2017-03-17T01:49:06.693Z,0
2017-03-17T01:50:06.720Z,0
2017-03-17T01:51:06.704Z,0
2017-03-17T01:52:06.742Z,0
2017-03-17T01:53:06.735Z,0
2017-03-17T01:54:07.325Z,0
2017-03-17T01:55:07.312Z,0
2017-03-17T01:56:07.391Z,0
2017-03-17T01:57:07.367Z,0
2017-03-17T01:58:07.347Z,0
2017-03-17T01:59:07.907Z,0
2017-03-17T02:00:07.929Z,0
2017-03-17T02:01:08.618Z,0
2017-03-17T02:02:08.524Z,0
2017-03-17T02:03:08.552Z,0
2017-03-17T02:04:08.617Z,0
2017-03-17T02:05:08.620Z,0
2017-03-17T02:06:08.637Z,0
2017-03-17T02:07:08.634Z,0
2017-03-17T02:08:09.163Z,0
2017-03-17T02:09:09.212Z,0
2017-03-17T02:10:09.216Z,0
2017-03-17T02:11:09.213Z,0
2017-03-17T02:12:09.366Z,0
2017-03-17T02:13:09.329Z,0
2017-03-17T02:14:09.334Z,0
2017-03-17T02:15:09.541Z,0
2017-03-17T02:16:09.348Z,0
2017-03-17T02:17:09.918Z,0
2017-03-17T02:18:10.010Z,0
2017-03-17T02:19:09.936Z,0
2017-03-17T02:20:10.999Z,0
2017-03-17T02:21:10.471Z,0
2017-03-17T02:22:10.492Z,0
2017-03-17T02:23:11.714Z,0
2017-03-17T02:24:11.698Z,0
2017-03-17T02:25:12.117Z,0
2017-03-17T02:26:11.761Z,0
2017-03-17T02:27:11.812Z,0
2017-03-17T02:28:11.859Z,0
2017-03-17T02:29:11.820Z,0
2017-03-17T02:30:12.443Z,0
2017-03-17T02:31:12.414Z,0
2017-03-17T02:32:12.401Z,0
2017-03-17T02:33:12.391Z,0
2017-03-17T02:34:13.147Z,0
2017-03-17T02:35:12.937Z,0
2017-03-17T02:36:13.031Z,0
2017-03-17T02:37:13.016Z,0
2017-03-17T02:38:13.018Z,0
2017-03-17T02:39:13.734Z,0
2017-03-17T02:40:13.734Z,0
2017-03-17T02:41:13.715Z,0
2017-03-17T02:42:13.766Z,0
2017-03-17T02:43:13.774Z,0
2017-03-17T02:44:13.831Z,0
2017-03-17T02:45:13.827Z,0
2017-03-17T02:46:13.856Z,0
2017-03-17T02:47:13.906Z,0
2017-03-17T02:48:13.909Z,0
2017-03-17T02:49:13.945Z,0
2017-03-17T02:50:14.007Z,0
2017-03-17T02:51:14.005Z,0
2017-03-17T02:52:14.127Z,0
2017-03-17T02:53:14.043Z,0
2017-03-17T02:54:14.064Z,0
2017-03-17T02:55:14.127Z,0
2017-03-17T02:56:14.091Z,0
2017-03-17T02:57:14.629Z,0
2017-03-17T02:58:14.688Z,0
2017-03-17T02:59:14.719Z,0
2017-03-17T03:00:14.731Z,0
2017-03-17T03:01:14.756Z,0
2017-03-17T03:02:14.810Z,0
2017-03-17T03:03:14.805Z,0
2017-03-17T03:04:14.801Z,0
2017-03-17T03:05:15.347Z,0
2017-03-17T03:06:15.383Z,0
2017-03-17T03:07:15.400Z,0
2017-03-17T03:08:15.397Z,0
2017-03-17T03:09:15.949Z,0
2017-03-17T03:10:16.494Z,0
2017-03-17T03:11:17.006Z,0
2017-03-17T03:12:17.027Z,0
2017-03-17T03:13:17.641Z,0
2017-03-17T03:14:17.619Z,0
2017-03-17T03:15:17.606Z,0
2017-03-17T03:16:18.115Z,0
2017-03-17T03:17:18.651Z,0
2017-03-17T03:18:18.746Z,0
2017-03-17T03:19:18.746Z,0
2017-03-17T03:20:18.757Z,0
2017-03-17T03:21:18.790Z,0
2017-03-17T03:22:18.855Z,0
2017-03-17T03:23:18.868Z,0
2017-03-17T03:24:18.853Z,0
2017-03-17T03:25:18.992Z,0
2017-03-17T03:26:18.879Z,0
2017-03-17T03:27:18.916Z,0
2017-03-17T03:28:18.958Z,0
2017-03-17T03:29:18.959Z,0
2017-03-17T03:30:19.582Z,0
2017-03-17T03:31:19.499Z,0
2017-03-17T03:32:20.047Z,0
2017-03-17T03:33:20.102Z,0
2017-03-17T03:34:20.062Z,0
2017-03-17T03:35:20.186Z,0
2017-03-17T03:36:20.125Z,0
2017-03-17T03:37:20.192Z,0
2017-03-17T03:38:20.171Z,0
2017-03-17T03:39:20.331Z,0
2017-03-17T03:40:20.302Z,0
2017-03-17T03:41:20.277Z,0
2017-03-17T03:42:20.296Z,0
2017-03-17T03:43:20.283Z,0
2017-03-17T03:44:20.351Z,0
2017-03-17T03:45:20.387Z,0
2017-03-17T03:46:20.370Z,0
2017-03-17T03:47:20.480Z,0
2017-03-17T03:48:20.446Z,0
2017-03-17T03:49:20.485Z,0
2017-03-17T03:50:20.469Z,0
2017-03-17T03:51:21.059Z,0
2017-03-17T03:52:21.156Z,0
2017-03-17T03:53:21.064Z,0
2017-03-17T03:54:21.601Z,0
2017-03-17T03:55:21.631Z,0
2017-03-17T03:56:21.679Z,0
2017-03-17T03:57:21.667Z,0
2017-03-17T03:58:21.696Z,0
2017-03-17T03:59:22.214Z,0
2017-03-17T04:00:22.266Z,0
2017-03-17T04:01:22.293Z,0
2017-03-17T04:02:22.272Z,0
2017-03-17T04:03:22.817Z,0
2017-03-17T04:04:22.864Z,0
2017-03-17T04:05:23.007Z,0
2017-03-17T04:06:23.035Z,0
2017-03-17T04:07:22.919Z,0
2017-03-17T04:08:23.478Z,0
2017-03-17T04:09:23.456Z,0
2017-03-17T04:10:23.513Z,0
2017-03-17T04:11:23.514Z,0
2017-03-17T04:12:23.547Z,0
2017-03-17T04:13:23.631Z,0
2017-03-17T04:14:23.635Z,0
2017-03-17T04:15:23.640Z,0
2017-03-17T04:16:23.644Z,0
2017-03-17T04:17:23.688Z,0
2017-03-17T04:18:23.696Z,0
2017-03-17T04:19:23.744Z,0
2017-03-17T04:20:23.776Z,0
2017-03-17T04:21:23.811Z,0
2017-03-17T04:22:23.968Z,0
2017-03-17T04:23:23.833Z,0
2017-03-17T04:24:23.856Z,0
2017-03-17T04:25:23.875Z,0
2017-03-17T04:26:24.435Z,0
2017-03-17T04:27:24.462Z,0
2017-03-17T04:28:24.443Z,0
2017-03-17T04:29:24.473Z,0
2017-03-17T04:30:24.475Z,0
2017-03-17T04:31:25.000Z,0
2017-03-17T04:32:25.592Z,0
2017-03-17T04:33:25.572Z,0
2017-03-17T04:34:25.701Z,0
2017-03-17T04:35:25.589Z,0
2017-03-17T04:36:26.157Z,0
2017-03-17T04:37:26.172Z,0
2017-03-17T04:38:26.211Z,0
2017-03-17T04:39:26.202Z,0
2017-03-17T04:40:26.254Z,0
2017-03-17T04:41:26.241Z,0
2017-03-17T04:42:26.795Z,0
2017-03-17T04:43:26.805Z,0
2017-03-17T04:44:26.826Z,0
2017-03-17T04:45:26.835Z,0
2017-03-17T04:46:26.862Z,0
2017-03-17T04:47:27.438Z,0
2017-03-17T04:48:27.436Z,0
2017-03-17T04:49:27.437Z,4
2017-03-17T04:50:28.043Z,4
2017-03-17T04:51:28.030Z,0
2017-03-17T04:52:28.224Z,4
2017-03-17T04:53:28.089Z,4
2017-03-17T04:54:28.122Z,4
2017-03-17T04:55:28.101Z,8
2017-03-17T04:56:28.690Z,8
2017-03-17T04:57:28.664Z,8
2017-03-17T04:58:28.670Z,12
2017-03-17T04:59:29.235Z,12
2017-03-17T05:00:29.422Z,12
2017-03-17T05:01:29.842Z,16
2017-03-17T05:02:30.227Z,20
2017-03-17T05:03:30.629Z,24
2017-03-17T05:04:31.027Z,24
2017-03-17T05:05:31.423Z,28
2017-03-17T05:06:31.827Z,32
2017-03-17T05:07:32.224Z,40
2017-03-17T05:08:32.594Z,44
2017-03-17T05:09:32.997Z,52
2017-03-17T05:10:33.391Z,56
2017-03-17T05:11:33.782Z,64
2017-03-17T05:12:34.173Z,72
2017-03-17T05:13:34.589Z,80
2017-03-17T05:14:34.985Z,84
2017-03-17T05:15:35.373Z,96
2017-03-17T05:16:35.777Z,104
2017-03-17T05:17:36.167Z,116
2017-03-17T05:18:36.561Z,128
2017-03-17T05:19:36.955Z,140
2017-03-17T05:20:37.351Z,156
2017-03-17T05:21:37.729Z,168
2017-03-17T05:22:38.130Z,188
2017-03-17T05:23:38.520Z,200
2017-03-17T05:24:38.911Z,224
2017-03-17T05:25:39.298Z,244
2017-03-17T05:26:39.697Z,260
2017-03-17T05:27:40.094Z,284
2017-03-17T05:28:40.495Z,304
2017-03-17T05:29:40.890Z,328
2017-03-17T05:30:41.270Z,352
2017-03-17T05:31:41.662Z,368
2017-03-17T05:32:42.067Z,384
2017-03-17T05:33:42.454Z,416
2017-03-17T05:34:42.835Z,444
2017-03-17T05:35:43.241Z,448
2017-03-17T05:36:43.637Z,460
2017-03-17T05:37:44.040Z,504
2017-03-17T05:38:44.449Z,560
2017-03-17T05:39:44.864Z,572
2017-03-17T05:40:45.258Z,572
2017-03-17T05:41:45.655Z,608
2017-03-17T05:42:46.054Z,632
2017-03-17T05:43:46.466Z,600
2017-03-17T05:44:46.883Z,580
2017-03-17T05:45:47.273Z,568
2017-03-17T05:46:47.667Z,520
2017-03-17T05:47:48.075Z,524
2017-03-17T05:48:48.462Z,564
2017-03-17T05:49:48.855Z,596
2017-03-17T05:50:49.254Z,616
2017-03-17T05:51:49.654Z,696
2017-03-17T05:52:50.051Z,796
2017-03-17T05:53:50.455Z,824
2017-03-17T05:54:50.889Z,840
2017-03-17T05:55:51.291Z,800
2017-03-17T05:56:51.683Z,748
2017-03-17T05:57:52.081Z,744
2017-03-17T05:58:52.484Z,704
2017-03-17T05:59:52.883Z,760
2017-03-17T06:00:53.281Z,744
2017-03-17T06:01:53.678Z,844
2017-03-17T06:02:54.071Z,992
2017-03-17T06:03:54.471Z,1092
2017-03-17T06:04:54.882Z,1060
2017-03-17T06:05:55.284Z,1116
2017-03-17T06:06:55.681Z,1240
2017-03-17T06:07:56.080Z,1360
2017-03-17T06:08:56.471Z,1420
2017-03-17T06:09:56.879Z,1476
2017-03-17T06:10:57.289Z,1592
2017-03-17T06:11:57.668Z,1800
2017-03-17T06:12:58.070Z,2116
2017-03-17T06:13:58.986Z,2484
2017-03-17T06:14:58.990Z,2724
2017-03-17T06:15:59.008Z,2672
2017-03-17T06:16:59.040Z,2568
2017-03-17T06:17:59.054Z,2556
2017-03-17T06:18:59.097Z,2688
2017-03-17T06:19:59.129Z,3012
2017-03-17T06:20:59.166Z,3032
2017-03-17T06:21:59.162Z,2992
2017-03-17T06:22:59.204Z,2748
2017-03-17T06:23:59.236Z,2440
2017-03-17T06:24:59.266Z,2176
2017-03-17T06:25:59.286Z,1932
2017-03-17T06:26:59.316Z,1828
2017-03-17T06:27:59.348Z,1756
2017-03-17T06:28:59.370Z,1832
2017-03-17T06:29:59.393Z,1704
2017-03-17T06:30:59.427Z,1680
2017-03-17T06:31:59.449Z,1520
2017-03-17T06:32:59.489Z,1488
2017-03-17T06:33:59.518Z,1488
2017-03-17T06:34:59.551Z,1600
2017-03-17T06:35:59.550Z,1776
2017-03-17T06:36:59.602Z,1776
2017-03-17T06:37:59.636Z,1776
2017-03-17T06:38:59.663Z,1680
2017-03-17T06:39:59.691Z,1748
2017-03-17T06:40:59.722Z,1592
2017-03-17T06:41:59.741Z,1516
2017-03-17T06:42:59.768Z,1604
2017-03-17T06:43:59.803Z,1816
2017-03-17T06:44:59.827Z,1848
2017-03-17T06:45:59.851Z,1572
2017-03-17T06:46:59.878Z,1228
2017-03-17T06:47:59.901Z,1224
2017-03-17T06:48:59.947Z,1612
2017-03-17T06:49:59.947Z,1740
2017-03-17T06:50:59.989Z,1688
2017-03-17T06:52:00.018Z,1508
2017-03-17T06:53:00.057Z,1244
2017-03-17T06:54:00.080Z,1036
2017-03-17T06:55:00.111Z,988
2017-03-17T06:56:00.140Z,960
2017-03-17T06:57:00.203Z,1184
2017-03-17T06:58:00.206Z,1408
2017-03-17T06:59:00.226Z,1332
2017-03-17T07:00:00.261Z,1312
2017-03-17T07:01:00.285Z,1288
2017-03-17T07:02:00.307Z,1752
2017-03-17T07:03:00.352Z,1964
2017-03-17T07:04:00.357Z,1996
2017-03-17T07:05:00.407Z,1756
2017-03-17T07:06:00.417Z,1548
2017-03-17T07:07:00.454Z,1420
2017-03-17T07:08:00.486Z,1360
2017-03-17T07:09:00.501Z,1132
2017-03-17T07:10:00.547Z,1188
2017-03-17T07:11:00.571Z,1112
2017-03-17T07:12:00.591Z,1024
2017-03-17T07:13:00.626Z,896
2017-03-17T07:14:00.661Z,804
2017-03-17T07:15:00.696Z,780
2017-03-17T07:16:00.718Z,748
2017-03-17T07:17:00.745Z,700
2017-03-17T07:18:00.764Z,620
2017-03-17T07:19:00.803Z,648
2017-03-17T07:20:00.833Z,704
2017-03-17T07:21:00.848Z,708
2017-03-17T07:22:00.887Z,576
2017-03-17T07:23:00.953Z,540
2017-03-17T07:24:00.955Z,620
2017-03-17T07:25:00.997Z,740
2017-03-17T07:26:01.022Z,756
2017-03-17T07:27:01.029Z,816
2017-03-17T07:28:01.077Z,864
2017-03-17T07:29:01.096Z,836
2017-03-17T07:30:01.113Z,764
2017-03-17T07:31:01.493Z,756
2017-03-17T07:32:01.166Z,820
2017-03-17T07:33:01.204Z,792
2017-03-17T07:34:01.249Z,788
2017-03-17T07:35:01.260Z,800
2017-03-17T07:36:01.443Z,888
2017-03-17T07:37:01.321Z,924
2017-03-17T07:38:01.351Z,1020
2017-03-17T07:39:01.392Z,1068
2017-03-17T07:40:01.407Z,1224
2017-03-17T07:41:01.519Z,1436
2017-03-17T07:42:01.465Z,1616
2017-03-17T07:43:01.505Z,1748
2017-03-17T07:44:01.524Z,1896
2017-03-17T07:45:01.555Z,1992
2017-03-17T07:46:01.730Z,2108
2017-03-17T07:47:01.595Z,2164
2017-03-17T07:48:01.645Z,2324
2017-03-17T07:49:01.673Z,2352
2017-03-17T07:50:01.698Z,2264
2017-03-17T07:51:01.719Z,2288
2017-03-17T07:52:01.765Z,2260
2017-03-17T07:53:01.789Z,2252
2017-03-17T07:54:01.820Z,2376
2017-03-17T07:55:01.848Z,2612
2017-03-17T07:56:01.863Z,2800
2017-03-17T07:57:01.906Z,3108
2017-03-17T07:58:01.935Z,3432
2017-03-17T07:59:01.949Z,3840
2017-03-17T08:00:02.005Z,4360
2017-03-17T08:01:02.041Z,3512
2017-03-17T08:02:02.053Z,2904
2017-03-17T08:03:02.093Z,3112
2017-03-17T08:04:02.119Z,3504
2017-03-17T08:05:02.150Z,3624
2017-03-17T08:06:02.226Z,4048
2017-03-17T08:07:02.208Z,4708
2017-03-17T08:08:02.238Z,5056
2017-03-17T08:09:02.267Z,4844
2017-03-17T08:10:02.301Z,4800
2017-03-17T08:11:02.328Z,4588
2017-03-17T08:12:02.356Z,4968
2017-03-17T08:13:02.389Z,5532
2017-03-17T08:14:02.414Z,4952
2017-03-17T08:15:02.449Z,4844
2017-03-17T08:16:02.474Z,4276
2017-03-17T08:17:02.496Z,4112
2017-03-17T08:18:02.535Z,4368
2017-03-17T08:19:02.558Z,5468
2017-03-17T08:20:02.592Z,6508
2017-03-17T08:21:02.620Z,6952
2017-03-17T08:22:02.650Z,7120
2017-03-17T08:23:02.699Z,6472
2017-03-17T08:24:02.710Z,6880
2017-03-17T08:25:02.768Z,7512
2017-03-17T08:26:02.768Z,7372
2017-03-17T08:27:02.813Z,7212
2017-03-17T08:28:02.851Z,8228
2017-03-17T08:29:02.851Z,9116
2017-03-17T08:30:02.898Z,8600
2017-03-17T08:31:02.926Z,8280
2017-03-17T08:32:02.945Z,8332
2017-03-17T08:33:02.995Z,9036
2017-03-17T08:34:03.024Z,9724
2017-03-17T08:35:03.051Z,10228
2017-03-17T08:36:03.084Z,10764
2017-03-17T08:37:03.119Z,10988
2017-03-17T08:38:03.146Z,12020
2017-03-17T08:39:03.166Z,13916
2017-03-17T08:40:03.212Z,14232
2017-03-17T08:41:03.249Z,12676
2017-03-17T08:42:03.257Z,12352
2017-03-17T08:43:03.317Z,11984
2017-03-17T08:44:03.354Z,11452
2017-03-17T08:45:03.393Z,11696
2017-03-17T08:46:03.390Z,10944
2017-03-17T08:47:03.432Z,10628
2017-03-17T08:48:03.477Z,12012
2017-03-17T08:49:03.532Z,13148
2017-03-17T08:50:03.542Z,14276
2017-03-17T08:51:03.578Z,14196
2017-03-17T08:52:03.609Z,14392
2017-03-17T08:53:03.652Z,14424
2017-03-17T08:54:03.683Z,15488
2017-03-17T08:55:03.715Z,13920
2017-03-17T08:56:03.782Z,13328
2017-03-17T08:57:03.985Z,13568
2017-03-17T08:58:03.831Z,13500
2017-03-17T08:59:03.859Z,12644
2017-03-17T09:00:03.900Z,13156
2017-03-17T09:01:03.909Z,12988
2017-03-17T09:02:03.962Z,12552
2017-03-17T09:03:04.014Z,12028
2017-03-17T09:04:04.039Z,12188
2017-03-17T09:05:04.083Z,13048
2017-03-17T09:06:04.117Z,13168
2017-03-17T09:07:04.151Z,14264
2017-03-17T09:08:04.189Z,14896
2017-03-17T09:09:04.232Z,15104
2017-03-17T09:10:04.285Z,17088
2017-03-17T09:11:04.294Z,16032
2017-03-17T09:12:04.336Z,16768
2017-03-17T09:13:04.357Z,14444
2017-03-17T09:14:04.409Z,12700
2017-03-17T09:15:04.446Z,11064
2017-03-17T09:16:04.477Z,11072
2017-03-17T09:17:04.526Z,11880
2017-03-17T09:18:04.565Z,13676
2017-03-17T09:19:04.600Z,11840
2017-03-17T09:20:04.649Z,9928
2017-03-17T09:21:04.686Z,8804
2017-03-17T09:22:04.708Z,8176
2017-03-17T09:23:04.748Z,7616
2017-03-17T09:24:04.780Z,7444
2017-03-17T09:25:04.815Z,7180
2017-03-17T09:26:04.860Z,7272
2017-03-17T09:27:04.911Z,6972
2017-03-17T09:28:04.937Z,5504
2017-03-17T09:29:05.013Z,5384
2017-03-17T09:30:05.008Z,5376
2017-03-17T09:31:05.042Z,5364
2017-03-17T09:32:05.073Z,6080
2017-03-17T09:33:05.120Z,6120
2017-03-17T09:34:05.148Z,6092
2017-03-17T09:35:05.178Z,6188
2017-03-17T09:36:05.214Z,6024
2017-03-17T09:37:05.253Z,6144
2017-03-17T09:38:05.274Z,5900
2017-03-17T09:39:05.324Z,6520
2017-03-17T09:40:05.391Z,6688
2017-03-17T09:41:05.419Z,6292
2017-03-17T09:42:05.427Z,6600
2017-03-17T09:43:05.449Z,6332
2017-03-17T09:44:05.490Z,6040
2017-03-17T09:45:05.526Z,5688
2017-03-17T09:46:05.566Z,5932
2017-03-17T09:47:05.590Z,6696
2017-03-17T09:48:05.630Z,7880
2017-03-17T09:49:05.659Z,8080
2017-03-17T09:50:05.698Z,8072
2017-03-17T09:51:05.733Z,7920
2017-03-17T09:52:05.767Z,7196
2017-03-17T09:53:05.802Z,6852
2017-03-17T09:54:05.834Z,6988
2017-03-17T09:55:05.866Z,8180
2017-03-17T09:56:05.889Z,8348
2017-03-17T09:57:05.921Z,7888
2017-03-17T09:58:05.971Z,7756
2017-03-17T09:59:06.006Z,9604
2017-03-17T10:00:06.243Z,7824
2017-03-17T10:01:06.072Z,6684
2017-03-17T10:02:06.118Z,5816
2017-03-17T10:03:06.173Z,4792
2017-03-17T10:04:06.162Z,4364
2017-03-17T10:05:06.211Z,4608
2017-03-17T10:06:06.249Z,4032
2017-03-17T10:07:06.266Z,4028
2017-03-17T10:08:06.278Z,4120
2017-03-17T10:09:06.341Z,4484
2017-03-17T10:10:06.383Z,3868
2017-03-17T10:11:06.431Z,3056
2017-03-17T10:12:06.630Z,2560
2017-03-17T10:13:06.470Z,2252
2017-03-17T10:14:06.505Z,1764
2017-03-17T10:15:06.762Z,1936
2017-03-17T10:16:06.561Z,1816
2017-03-17T10:17:06.580Z,1504
2017-03-17T10:18:06.626Z,1364
2017-03-17T10:19:06.664Z,1456
2017-03-17T10:20:06.718Z,1256
2017-03-17T10:21:06.729Z,1240
2017-03-17T10:22:06.751Z,1540
2017-03-17T10:23:06.788Z,1624
2017-03-17T10:24:06.821Z,1636
2017-03-17T10:25:06.882Z,1560
2017-03-17T10:26:06.882Z,1724
2017-03-17T10:27:06.926Z,2192
2017-03-17T10:28:06.940Z,2260
2017-03-17T10:29:07.013Z,1752
2017-03-17T10:30:07.219Z,1380
2017-03-17T10:31:07.036Z,1452
2017-03-17T10:32:07.074Z,1320
2017-03-17T10:33:07.104Z,1268
2017-03-17T10:34:07.135Z,1332
2017-03-17T10:35:07.275Z,1472
2017-03-17T10:36:07.208Z,1616
2017-03-17T10:37:07.229Z,1484
2017-03-17T10:38:07.269Z,1444
2017-03-17T10:39:07.301Z,1476
2017-03-17T10:40:07.330Z,1316
2017-03-17T10:41:07.360Z,1372
2017-03-17T10:42:07.368Z,1460
2017-03-17T10:43:07.426Z,1636
2017-03-17T10:44:07.446Z,1884
2017-03-17T10:45:07.509Z,1816
2017-03-17T10:46:07.517Z,1984
2017-03-17T10:47:07.547Z,2080
2017-03-17T10:48:07.567Z,1996
2017-03-17T10:49:07.596Z,2000
2017-03-17T10:50:07.618Z,1784
2017-03-17T10:51:07.653Z,1640
2017-03-17T10:52:07.693Z,1680
2017-03-17T10:53:07.724Z,1668
2017-03-17T10:54:07.766Z,1624
2017-03-17T10:55:07.801Z,1536
2017-03-17T10:56:07.820Z,1464
2017-03-17T10:57:07.860Z,1504
2017-03-17T10:58:07.874Z,1688
2017-03-17T10:59:07.918Z,1848
2017-03-17T11:00:07.941Z,1736
2017-03-17T11:01:07.969Z,1584
2017-03-17T11:02:07.987Z,1596
2017-03-17T11:03:08.021Z,1592
2017-03-17T11:04:08.074Z,1564
2017-03-17T11:05:08.093Z,1496
2017-03-17T11:06:08.130Z,1404
2017-03-17T11:07:08.154Z,1456
2017-03-17T11:08:08.187Z,1636
2017-03-17T11:09:08.236Z,1784
2017-03-17T11:10:08.287Z,1840
2017-03-17T11:11:08.285Z,2120
2017-03-17T11:12:08.313Z,2360
2017-03-17T11:13:08.348Z,2412
2017-03-17T11:14:08.399Z,2484
2017-03-17T11:15:08.416Z,2648
2017-03-17T11:16:08.464Z,2872
2017-03-17T11:17:08.465Z,3440
2017-03-17T11:18:08.486Z,3400
2017-03-17T11:19:08.516Z,3536
2017-03-17T11:20:08.558Z,3772
2017-03-17T11:21:08.576Z,3752
2017-03-17T11:22:08.614Z,3844
2017-03-17T11:23:08.645Z,4860
2017-03-17T11:24:08.667Z,5320
2017-03-17T11:25:08.700Z,5460
2017-03-17T11:26:08.730Z,5164
2017-03-17T11:27:08.795Z,4844
2017-03-17T11:28:08.810Z,4608
2017-03-17T11:29:08.824Z,4296
2017-03-17T11:30:08.864Z,4160
2017-03-17T11:31:08.903Z,3980
2017-03-17T11:32:08.925Z,3932
2017-03-17T11:33:08.951Z,3820
2017-03-17T11:34:08.979Z,3804
2017-03-17T11:35:09.007Z,3584
2017-03-17T11:36:09.068Z,3312
2017-03-17T11:37:09.076Z,3244
2017-03-17T11:38:09.099Z,3472
2017-03-17T11:39:09.134Z,4276
2017-03-17T11:40:09.166Z,4516
2017-03-17T11:41:09.252Z,5092
2017-03-17T11:42:09.235Z,5864
2017-03-17T11:43:09.272Z,7684
2017-03-17T11:44:09.295Z,8244
2017-03-17T11:45:09.325Z,8688
2017-03-17T11:46:09.348Z,8484
2017-03-17T11:47:09.385Z,6584
2017-03-17T11:48:09.403Z,5460
2017-03-17T11:49:09.441Z,5468
2017-03-17T11:50:09.483Z,5432
2017-03-17T11:51:09.507Z,5452
2017-03-17T11:52:09.534Z,6464
2017-03-17T11:53:09.569Z,6944
2017-03-17T11:54:09.599Z,7616
2017-03-17T11:55:09.935Z,7536
2017-03-17T11:56:09.648Z,7412
2017-03-17T11:57:09.677Z,7528
2017-03-17T11:58:09.728Z,7528
2017-03-17T11:59:09.754Z,7792
2017-03-17T12:00:10.225Z,7612
2017-03-17T12:01:09.819Z,7148
2017-03-17T12:02:09.832Z,7036
2017-03-17T12:03:09.878Z,6652
2017-03-17T12:04:09.922Z,6244
2017-03-17T12:05:09.981Z,6324
2017-03-17T12:06:09.969Z,6608
2017-03-17T12:07:10.000Z,7344
2017-03-17T12:08:10.040Z,7824
2017-03-17T12:09:10.097Z,7892
2017-03-17T12:10:10.096Z,8104
2017-03-17T12:11:10.125Z,7872
2017-03-17T12:12:10.156Z,7532
2017-03-17T12:13:10.185Z,7272
2017-03-17T12:14:10.242Z,7128
2017-03-17T12:15:10.259Z,6992
2017-03-17T12:16:10.294Z,7140
2017-03-17T12:17:10.320Z,6900
2017-03-17T12:18:10.328Z,7000
2017-03-17T12:19:10.378Z,6756
2017-03-17T12:20:10.425Z,7476
2017-03-17T12:21:10.453Z,7932
2017-03-17T12:22:10.480Z,8420
2017-03-17T12:23:10.548Z,8484
2017-03-17T12:24:10.555Z,8400
2017-03-17T12:25:10.565Z,8408
2017-03-17T12:26:10.611Z,9344
2017-03-17T12:27:10.650Z,9468
2017-03-17T12:28:10.704Z,9216
2017-03-17T12:29:10.728Z,8620
2017-03-17T12:30:10.725Z,7936
2017-03-17T12:31:10.780Z,7652
2017-03-17T12:32:10.791Z,8084
2017-03-17T12:33:10.853Z,8312
2017-03-17T12:34:10.894Z,7920
2017-03-17T12:35:10.910Z,7808
2017-03-17T12:36:10.952Z,7636
2017-03-17T12:37:10.967Z,7504
2017-03-17T12:38:11.007Z,7632
2017-03-17T12:39:11.037Z,7812
2017-03-17T12:40:11.063Z,7784
2017-03-17T12:41:11.107Z,7032
2017-03-17T12:42:11.160Z,7312
2017-03-17T12:43:11.191Z,7480
2017-03-17T12:44:11.187Z,7288
2017-03-17T12:45:11.242Z,6748
2017-03-17T12:46:11.263Z,6460
2017-03-17T12:47:11.308Z,6176
2017-03-17T12:48:11.334Z,5928
2017-03-17T12:49:11.357Z,5868
2017-03-17T12:50:11.398Z,6076
2017-03-17T12:51:11.411Z,5944
2017-03-17T12:52:11.459Z,6244
2017-03-17T12:53:11.489Z,6264
2017-03-17T12:54:11.521Z,6524
2017-03-17T12:55:11.562Z,6548
2017-03-17T12:56:11.591Z,6656
2017-03-17T12:57:11.625Z,6864
2017-03-17T12:58:11.656Z,6396
2017-03-17T12:59:11.685Z,5968
2017-03-17T13:00:11.719Z,6024
2017-03-17T13:01:11.751Z,6336
2017-03-17T13:02:11.779Z,6384
2017-03-17T13:03:11.803Z,6060
2017-03-17T13:04:11.873Z,5924
2017-03-17T13:05:11.877Z,6300
2017-03-17T13:06:11.929Z,6804
2017-03-17T13:07:11.942Z,7028
2017-03-17T13:08:11.969Z,6920
2017-03-17T13:09:12.022Z,6764
2017-03-17T13:10:12.036Z,6780
2017-03-17T13:11:12.070Z,6804
2017-03-17T13:12:12.103Z,6592
2017-03-17T13:13:12.177Z,6400
2017-03-17T13:14:12.186Z,6300
2017-03-17T13:15:12.189Z,6324
2017-03-17T13:16:12.239Z,6248
2017-03-17T13:17:12.268Z,6088
2017-03-17T13:18:12.300Z,5988
2017-03-17T13:19:12.331Z,5788
2017-03-17T13:20:12.358Z,5836
2017-03-17T13:21:12.395Z,5748
2017-03-17T13:22:12.428Z,5476
2017-03-17T13:23:12.474Z,5368
2017-03-17T13:24:12.476Z,5268
2017-03-17T13:25:12.533Z,5148
2017-03-17T13:26:12.549Z,4860
2017-03-17T13:27:12.595Z,4704
2017-03-17T13:28:12.637Z,4636
2017-03-17T13:29:12.658Z,4528
2017-03-17T13:30:12.783Z,4480
2017-03-17T13:31:12.727Z,4420
2017-03-17T13:32:12.751Z,4440
2017-03-17T13:33:12.784Z,4432
2017-03-17T13:34:12.815Z,4316
2017-03-17T13:35:13.099Z,4304
2017-03-17T13:36:12.885Z,4276
2017-03-17T13:37:12.914Z,4244
2017-03-17T13:38:12.978Z,4188
2017-03-17T13:39:12.968Z,4100
2017-03-17T13:40:12.990Z,4052
2017-03-17T13:41:13.046Z,4032
2017-03-17T13:42:13.063Z,4060
2017-03-17T13:43:13.103Z,4072
2017-03-17T13:44:13.155Z,4040
2017-03-17T13:45:13.174Z,3976
2017-03-17T13:46:13.218Z,3852
2017-03-17T13:47:13.232Z,3736
2017-03-17T13:48:13.284Z,3652
2017-03-17T13:49:13.289Z,3556
2017-03-17T13:50:13.337Z,3472
2017-03-17T13:51:13.355Z,3444
2017-03-17T13:52:13.388Z,3472